sensor_id;sensor_type;location;lat;lon;timestamp;pressure;altitude;pressure_sealevel;temperature;humidity
788;BME280;16074;42.708;23.312;2023-09-19T00:02:17;142394.72;;;16.89;100.00
788;BME280;16074;42.708;23.312;2023-09-19T00:04:46;142397.16;;;16.90;100.00
788;BME280;16074;42.708;23.312;2023-09-19T00:07:15;142393.50;;;16.88;100.00
788;BME280;16074;42.708;23.312;2023-09-19T00:09:44;142372.91;;;16.80;100.00
788;BME280;16074;42.708;23.312;2023-09-19T00:12:13;142389.88;;;16.87;100.00
788;BME280;16074;42.708;23.312;2023-09-19T00:14:42;142386.22;;;16.85;100.00
788;BME280;16074;42.708;23.312;2023-09-19T00:17:11;142369.28;;;16.78;100.00
788;BME280;16074;42.708;23.312;2023-09-19T00:19:40;142386.22;;;16.85;100.00
788;BME280;16074;42.708;23.312;2023-09-19T00:22:10;142370.50;;;16.79;100.00
788;BME280;16074;42.708;23.312;2023-09-19T00:24:40;142369.28;;;16.78;100.00
788;BME280;16074;42.708;23.312;2023-09-19T00:27:08;142364.41;;;16.76;100.00
788;BME280;16074;42.708;23.312;2023-09-19T00:29:37;142385.03;;;16.85;100.00
788;BME280;16074;42.708;23.312;2023-09-19T00:32:07;142388.66;;;16.86;100.00
788;BME280;16074;42.708;23.312;2023-09-19T00:34:37;142374.13;;;16.80;100.00
788;BME280;16074;42.708;23.312;2023-09-19T00:37:05;142382.63;;;16.84;100.00
788;BME280;16074;42.708;23.312;2023-09-19T00:39:33;142368.06;;;16.78;100.00
788;BME280;16074;42.708;23.312;2023-09-19T00:42:02;142372.91;;;16.80;100.00
788;BME280;16074;42.708;23.312;2023-09-19T00:44:32;142369.28;;;16.78;100.00
788;BME280;16074;42.708;23.312;2023-09-19T00:47:01;142370.50;;;16.79;100.00
788;BME280;16074;42.708;23.312;2023-09-19T00:49:30;142353.53;;;16.72;100.00
788;BME280;16074;42.708;23.312;2023-09-19T00:52:01;142354.72;;;16.73;100.00
788;BME280;16074;42.708;23.312;2023-09-19T00:54:32;142343.84;;;16.68;100.00
788;BME280;16074;42.708;23.312;2023-09-19T00:57:03;142343.84;;;16.68;100.00
788;BME280;16074;42.708;23.312;2023-09-19T00:59:32;142348.69;;;16.70;100.00
788;BME280;16074;42.708;23.312;2023-09-19T01:02:00;142341.44;;;16.67;100.00
788;BME280;16074;42.708;23.312;2023-09-19T01:04:32;142331.75;;;16.63;100.00
788;BME280;16074;42.708;23.312;2023-09-19T01:07:02;142347.50;;;16.70;100.00
788;BME280;16074;42.708;23.312;2023-09-19T01:09:31;142343.84;;;16.68;100.00
788;BME280;16074;42.708;23.312;2023-09-19T01:12:04;142313.59;;;16.56;100.00
788;BME280;16074;42.708;23.312;2023-09-19T01:14:42;142329.31;;;16.62;100.00
788;BME280;16074;42.708;23.312;2023-09-19T01:17:17;142329.31;;;16.62;100.00
788;BME280;16074;42.708;23.312;2023-09-19T01:20:19;142345.09;;;16.69;100.00
788;BME280;16074;42.708;23.312;2023-09-19T01:23:02;142354.72;;;16.73;100.00
788;BME280;16074;42.708;23.312;2023-09-19T01:26:01;142358.38;;;16.74;100.00
788;BME280;16074;42.708;23.312;2023-09-19T01:28:45;142346.28;;;16.69;100.00
788;BME280;16074;42.708;23.312;2023-09-19T01:31:23;142348.69;;;16.70;100.00
788;BME280;16074;42.708;23.312;2023-09-19T01:33:57;142328.13;;;16.62;100.00
788;BME280;16074;42.708;23.312;2023-09-19T01:36:28;142324.47;;;16.60;100.00
788;BME280;16074;42.708;23.312;2023-09-19T01:38:58;142319.63;;;16.58;100.00
788;BME280;16074;42.708;23.312;2023-09-19T01:41:47;142311.16;;;16.55;100.00
788;BME280;16074;42.708;23.312;2023-09-19T01:44:25;142283.28;;;16.43;100.00
788;BME280;16074;42.708;23.312;2023-09-19T01:47:04;142267.56;;;16.37;100.00
788;BME280;16074;42.708;23.312;2023-09-19T01:49:44;142289.38;;;16.46;100.00
788;BME280;16074;42.708;23.312;2023-09-19T01:52:20;142272.41;;;16.39;100.00
788;BME280;16074;42.708;23.312;2023-09-19T01:54:52;142291.78;;;16.47;100.00
788;BME280;16074;42.708;23.312;2023-09-19T01:57:27;142283.28;;;16.43;100.00
788;BME280;16074;42.708;23.312;2023-09-19T02:00:00;142285.72;;;16.44;100.00
788;BME280;16074;42.708;23.312;2023-09-19T02:02:43;142272.41;;;16.39;100.00
788;BME280;16074;42.708;23.312;2023-09-19T02:05:12;142260.31;;;16.34;100.00
788;BME280;16074;42.708;23.312;2023-09-19T02:07:41;142244.53;;;16.27;100.00
788;BME280;16074;42.708;23.312;2023-09-19T02:10:10;142231.19;;;16.22;100.00
788;BME280;16074;42.708;23.312;2023-09-19T02:12:39;142237.28;;;16.24;100.00
788;BME280;16074;42.708;23.312;2023-09-19T02:15:08;142254.22;;;16.31;100.00
788;BME280;16074;42.708;23.312;2023-09-19T02:17:36;142231.19;;;16.22;100.00
788;BME280;16074;42.708;23.312;2023-09-19T02:20:07;142257.88;;;16.33;100.00
788;BME280;16074;42.708;23.312;2023-09-19T02:22:37;142255.41;;;16.32;100.00
788;BME280;16074;42.708;23.312;2023-09-19T02:25:06;142248.16;;;16.29;100.00
788;BME280;16074;42.708;23.312;2023-09-19T02:27:35;142248.16;;;16.29;100.00
788;BME280;16074;42.708;23.312;2023-09-19T02:30:05;142227.59;;;16.20;100.00
788;BME280;16074;42.708;23.312;2023-09-19T02:32:34;142222.75;;;16.18;100.00
788;BME280;16074;42.708;23.312;2023-09-19T02:35:08;142207.03;;;16.12;100.00
788;BME280;16074;42.708;23.312;2023-09-19T02:37:38;142196.13;;;16.07;100.00
788;BME280;16074;42.708;23.312;2023-09-19T02:40:07;142193.69;;;16.06;100.00
788;BME280;16074;42.708;23.312;2023-09-19T02:42:46;142196.13;;;16.07;100.00
788;BME280;16074;42.708;23.312;2023-09-19T02:45:17;142205.81;;;16.11;100.00
788;BME280;16074;42.708;23.312;2023-09-19T02:47:46;142204.63;;;16.11;100.00
788;BME280;16074;42.708;23.312;2023-09-19T02:50:17;142187.66;;;16.04;100.00
788;BME280;16074;42.708;23.312;2023-09-19T02:52:46;142207.03;;;16.12;100.00
788;BME280;16074;42.708;23.312;2023-09-19T02:55:16;142215.50;;;16.15;100.00
788;BME280;16074;42.708;23.312;2023-09-19T02:58:03;142226.34;;;16.20;100.00
788;BME280;16074;42.708;23.312;2023-09-19T03:00:34;142227.59;;;16.20;100.00
788;BME280;16074;42.708;23.312;2023-09-19T03:03:03;142219.09;;;16.17;100.00
788;BME280;16074;42.708;23.312;2023-09-19T03:05:35;142226.34;;;16.20;100.00
788;BME280;16074;42.708;23.312;2023-09-19T03:08:05;142211.88;;;16.14;100.00
788;BME280;16074;42.708;23.312;2023-09-19T03:10:34;142202.19;;;16.10;100.00
788;BME280;16074;42.708;23.312;2023-09-19T03:13:02;142191.28;;;16.05;100.00
788;BME280;16074;42.708;23.312;2023-09-19T03:15:31;142165.88;;;15.95;100.00
788;BME280;16074;42.708;23.312;2023-09-19T03:17:59;142164.63;;;15.94;100.00
788;BME280;16074;42.708;23.312;2023-09-19T03:20:28;142177.97;;;16.00;100.00
788;BME280;16074;42.708;23.312;2023-09-19T03:22:58;142168.28;;;15.96;100.00
788;BME280;16074;42.708;23.312;2023-09-19T03:25:29;142177.97;;;16.00;100.00
788;BME280;16074;42.708;23.312;2023-09-19T03:27:57;142181.59;;;16.01;100.00
788;BME280;16074;42.708;23.312;2023-09-19T03:30:26;142173.13;;;15.98;100.00
788;BME280;16074;42.708;23.312;2023-09-19T03:32:54;142176.75;;;15.99;100.00
788;BME280;16074;42.708;23.312;2023-09-19T03:35:23;142167.06;;;15.95;100.00
788;BME280;16074;42.708;23.312;2023-09-19T03:37:51;142165.88;;;15.95;100.00
788;BME280;16074;42.708;23.312;2023-09-19T03:40:22;142164.63;;;15.94;100.00
788;BME280;16074;42.708;23.312;2023-09-19T03:42:51;142188.84;;;16.04;100.00
788;BME280;16074;42.708;23.312;2023-09-19T03:45:19;142196.13;;;16.07;100.00
788;BME280;16074;42.708;23.312;2023-09-19T03:47:50;142199.78;;;16.09;100.00
788;BME280;16074;42.708;23.312;2023-09-19T03:50:21;142208.22;;;16.12;100.00
788;BME280;16074;42.708;23.312;2023-09-19T03:52:50;142196.13;;;16.07;100.00
788;BME280;16074;42.708;23.312;2023-09-19T03:55:18;142188.84;;;16.04;100.00
788;BME280;16074;42.708;23.312;2023-09-19T03:57:49;142180.41;;;16.01;100.00
788;BME280;16074;42.708;23.312;2023-09-19T04:00:18;142199.78;;;16.09;100.00
788;BME280;16074;42.708;23.312;2023-09-19T04:02:48;142180.41;;;16.01;100.00
788;BME280;16074;42.708;23.312;2023-09-19T04:05:17;142175.56;;;15.99;100.00
788;BME280;16074;42.708;23.312;2023-09-19T04:07:45;142165.88;;;15.95;100.00
788;BME280;16074;42.708;23.312;2023-09-19T04:10:14;142167.06;;;15.95;100.00
788;BME280;16074;42.708;23.312;2023-09-19T04:12:51;142158.63;;;15.92;100.00
788;BME280;16074;42.708;23.312;2023-09-19T04:15:22;142171.91;;;15.97;100.00
788;BME280;16074;42.708;23.312;2023-09-19T04:17:53;142169.47;;;15.96;100.00
788;BME280;16074;42.708;23.312;2023-09-19T04:20:22;142199.78;;;16.09;100.00
788;BME280;16074;42.708;23.312;2023-09-19T04:22:51;142173.13;;;15.98;100.00
788;BME280;16074;42.708;23.312;2023-09-19T04:25:19;142185.25;;;16.03;100.00
788;BME280;16074;42.708;23.312;2023-09-19T04:27:48;142177.97;;;16.00;100.00
788;BME280;16074;42.708;23.312;2023-09-19T04:30:17;142187.66;;;16.04;100.00
788;BME280;16074;42.708;23.312;2023-09-19T04:32:48;142180.41;;;16.01;100.00
788;BME280;16074;42.708;23.312;2023-09-19T04:35:18;142213.06;;;16.14;100.00
788;BME280;16074;42.708;23.312;2023-09-19T04:37:47;142227.59;;;16.20;100.00
788;BME280;16074;42.708;23.312;2023-09-19T04:40:15;142221.50;;;16.18;100.00
788;BME280;16074;42.708;23.312;2023-09-19T04:42:45;142227.59;;;16.20;100.00
788;BME280;16074;42.708;23.312;2023-09-19T04:45:14;142233.63;;;16.23;100.00
788;BME280;16074;42.708;23.312;2023-09-19T04:47:44;142234.84;;;16.23;100.00
788;BME280;16074;42.708;23.312;2023-09-19T04:50:13;142233.63;;;16.23;100.00
788;BME280;16074;42.708;23.312;2023-09-19T04:52:42;142259.13;;;16.33;100.00
788;BME280;16074;42.708;23.312;2023-09-19T04:55:12;142276.06;;;16.40;100.00
788;BME280;16074;42.708;23.312;2023-09-19T04:57:45;142277.25;;;16.41;100.00
788;BME280;16074;42.708;23.312;2023-09-19T05:00:15;142272.41;;;16.39;100.00
788;BME280;16074;42.708;23.312;2023-09-19T05:02:49;142271.22;;;16.38;100.00
788;BME280;16074;42.708;23.312;2023-09-19T05:05:18;142274.84;;;16.40;100.00
788;BME280;16074;42.708;23.312;2023-09-19T05:07:47;142286.94;;;16.45;100.00
788;BME280;16074;42.708;23.312;2023-09-19T05:10:15;142326.91;;;16.61;100.00
788;BME280;16074;42.708;23.312;2023-09-19T05:12:46;142349.94;;;16.71;100.00
788;BME280;16074;42.708;23.312;2023-09-19T05:15:18;142354.72;;;16.73;100.00
788;BME280;16074;42.708;23.312;2023-09-19T05:17:52;142388.66;;;16.86;100.00
788;BME280;16074;42.708;23.312;2023-09-19T05:20:24;142397.16;;;16.90;100.00
788;BME280;16074;42.708;23.312;2023-09-19T05:23:00;142426.19;;;17.02;100.00
788;BME280;16074;42.708;23.312;2023-09-19T05:25:36;142450.41;;;17.12;100.00
788;BME280;16074;42.708;23.312;2023-09-19T05:28:06;142456.50;;;17.14;100.00
788;BME280;16074;42.708;23.312;2023-09-19T05:30:35;142455.25;;;17.14;100.00
788;BME280;16074;42.708;23.312;2023-09-19T05:33:07;142471.03;;;17.20;100.00
788;BME280;16074;42.708;23.312;2023-09-19T05:35:36;142478.31;;;17.23;100.00
788;BME280;16074;42.708;23.312;2023-09-19T05:38:07;142490.38;;;17.28;100.00
788;BME280;16074;42.708;23.312;2023-09-19T05:40:36;142513.47;;;17.38;100.00
788;BME280;16074;42.708;23.312;2023-09-19T05:43:05;142536.47;;;17.47;100.00
788;BME280;16074;42.708;23.312;2023-09-19T05:45:34;142571.63;;;17.62;100.00
788;BME280;16074;42.708;23.312;2023-09-19T05:48:14;142612.84;;;17.79;100.00
788;BME280;16074;42.708;23.312;2023-09-19T05:50:43;142628.56;;;17.85;100.00
788;BME280;16074;42.708;23.312;2023-09-19T05:53:14;142647.97;;;17.93;100.00
788;BME280;16074;42.708;23.312;2023-09-19T05:55:43;142673.47;;;18.03;100.00
788;BME280;16074;42.708;23.312;2023-09-19T05:58:12;142718.31;;;18.22;100.00
788;BME280;16074;42.708;23.312;2023-09-19T06:00:42;142751.09;;;18.35;100.00
788;BME280;16074;42.708;23.312;2023-09-19T06:03:11;142777.78;;;18.46;100.00
788;BME280;16074;42.708;23.312;2023-09-19T06:05:42;142795.94;;;18.54;100.00
788;BME280;16074;42.708;23.312;2023-09-19T06:08:10;142815.38;;;18.62;100.00
788;BME280;16074;42.708;23.312;2023-09-19T06:10:39;142834.78;;;18.70;100.00
788;BME280;16074;42.708;23.312;2023-09-19T06:13:08;142860.25;;;18.80;100.00
788;BME280;16074;42.708;23.312;2023-09-19T06:15:37;142903.94;;;18.98;100.00
788;BME280;16074;42.708;23.312;2023-09-19T06:18:11;142936.69;;;19.12;100.00
788;BME280;16074;42.708;23.312;2023-09-19T06:20:43;142974.34;;;19.27;100.00
788;BME280;16074;42.708;23.312;2023-09-19T06:23:12;143010.75;;;19.42;100.00
788;BME280;16074;42.708;23.312;2023-09-19T06:25:40;143052.03;;;19.59;100.00
788;BME280;16074;42.708;23.312;2023-09-19T06:28:10;143083.63;;;19.72;100.00
788;BME280;16074;42.708;23.312;2023-09-19T06:30:40;143107.91;;;19.82;100.00
788;BME280;16074;42.708;23.312;2023-09-19T06:33:08;143135.81;;;19.93;100.00
788;BME280;16074;42.708;23.312;2023-09-19T06:35:39;143155.31;;;20.01;100.00
788;BME280;16074;42.708;23.312;2023-09-19T06:38:10;143185.66;;;20.14;100.00
788;BME280;16074;42.708;23.312;2023-09-19T06:40:40;143239.13;;;20.36;100.00
788;BME280;16074;42.708;23.312;2023-09-19T06:43:10;143264.59;;;20.46;100.00
788;BME280;16074;42.708;23.312;2023-09-19T06:45:38;143316.84;;;20.67;98.85
788;BME280;16074;42.708;23.312;2023-09-19T06:48:07;143322.91;;;20.70;98.90
788;BME280;16074;42.708;23.312;2023-09-19T06:50:37;143325.31;;;20.71;98.33
788;BME280;16074;42.708;23.312;2023-09-19T06:53:09;143324.13;;;20.70;97.21
788;BME280;16074;42.708;23.312;2023-09-19T06:55:37;143322.91;;;20.70;98.54
788;BME280;16074;42.708;23.312;2023-09-19T06:58:06;143321.72;;;20.69;97.89
788;BME280;16074;42.708;23.312;2023-09-19T07:00:34;143341.16;;;20.77;96.17
788;BME280;16074;42.708;23.312;2023-09-19T07:03:05;143342.34;;;20.78;96.08
788;BME280;16074;42.708;23.312;2023-09-19T07:05:35;143337.47;;;20.76;97.48
788;BME280;16074;42.708;23.312;2023-09-19T07:08:07;143356.97;;;20.84;97.29
788;BME280;16074;42.708;23.312;2023-09-19T07:10:38;143382.53;;;20.94;96.59
788;BME280;16074;42.708;23.312;2023-09-19T07:13:08;143414.09;;;21.07;95.00
788;BME280;16074;42.708;23.312;2023-09-19T07:15:38;143453.00;;;21.23;93.05
788;BME280;16074;42.708;23.312;2023-09-19T07:18:14;143494.34;;;21.40;91.39
788;BME280;16074;42.708;23.312;2023-09-19T07:20:44;143460.31;;;21.26;90.71
788;BME280;16074;42.708;23.312;2023-09-19T07:23:16;143450.59;;;21.22;91.65
788;BME280;16074;42.708;23.312;2023-09-19T07:25:47;143455.44;;;21.24;91.42
788;BME280;16074;42.708;23.312;2023-09-19T07:28:16;143487.06;;;21.37;90.78
788;BME280;16074;42.708;23.312;2023-09-19T07:30:44;143506.53;;;21.45;90.85
788;BME280;16074;42.708;23.312;2023-09-19T07:33:12;143530.81;;;21.55;89.18
788;BME280;16074;42.708;23.312;2023-09-19T07:35:45;143496.78;;;21.41;89.01
788;BME280;16074;42.708;23.312;2023-09-19T07:38:13;143519.88;;;21.51;89.16
788;BME280;16074;42.708;23.312;2023-09-19T07:40:42;143546.69;;;21.62;87.95
788;BME280;16074;42.708;23.312;2023-09-19T07:43:12;143533.22;;;21.56;88.29
788;BME280;16074;42.708;23.312;2023-09-19T07:45:40;143549.13;;;21.63;88.30
788;BME280;16074;42.708;23.312;2023-09-19T07:48:10;143592.91;;;21.80;84.30
788;BME280;16074;42.708;23.312;2023-09-19T07:50:42;143564.91;;;21.69;86.10
788;BME280;16074;42.708;23.312;2023-09-19T07:53:12;143597.72;;;21.82;87.42
788;BME280;16074;42.708;23.312;2023-09-19T07:55:43;143608.72;;;21.87;85.64
788;BME280;16074;42.708;23.312;2023-09-19T07:58:16;143633.03;;;21.97;86.11
788;BME280;16074;42.708;23.312;2023-09-19T08:00:45;143657.38;;;22.07;86.60
788;BME280;16074;42.708;23.312;2023-09-19T08:03:13;143714.56;;;22.30;85.27
788;BME280;16074;42.708;23.312;2023-09-19T08:05:44;143773.00;;;22.54;82.77
788;BME280;16074;42.708;23.312;2023-09-19T08:08:13;143814.38;;;22.71;81.57
788;BME280;16074;42.708;23.312;2023-09-19T08:10:42;143830.19;;;22.78;79.84
788;BME280;16074;42.708;23.312;2023-09-19T08:13:17;143882.53;;;22.99;79.42
788;BME280;16074;42.708;23.312;2023-09-19T08:15:45;143944.66;;;23.24;76.45
788;BME280;16074;42.708;23.312;2023-09-19T08:18:15;143977.56;;;23.38;74.35
788;BME280;16074;42.708;23.312;2023-09-19T08:20:49;144006.81;;;23.50;75.67
788;BME280;16074;42.708;23.312;2023-09-19T08:23:17;144078.72;;;23.79;71.44
788;BME280;16074;42.708;23.312;2023-09-19T08:25:47;144092.13;;;23.85;72.20
788;BME280;16074;42.708;23.312;2023-09-19T08:28:17;144131.13;;;24.01;67.95
788;BME280;16074;42.708;23.312;2023-09-19T08:30:51;144082.38;;;23.81;68.02
788;BME280;16074;42.708;23.312;2023-09-19T08:33:22;144105.50;;;23.90;68.17
788;BME280;16074;42.708;23.312;2023-09-19T08:35:50;144137.19;;;24.03;68.00
788;BME280;16074;42.708;23.312;2023-09-19T08:38:19;144049.44;;;23.67;69.86
788;BME280;16074;42.708;23.312;2023-09-19T08:40:47;144079.94;;;23.80;70.74
788;BME280;16074;42.708;23.312;2023-09-19T08:43:21;144117.69;;;23.95;70.64
788;BME280;16074;42.708;23.312;2023-09-19T08:45:49;144144.50;;;24.06;69.61
788;BME280;16074;42.708;23.312;2023-09-19T08:48:22;144173.75;;;24.18;68.22
788;BME280;16074;42.708;23.312;2023-09-19T08:50:56;144166.44;;;24.15;66.55
788;BME280;16074;42.708;23.312;2023-09-19T08:53:34;144001.94;;;23.48;69.54
788;BME280;16074;42.708;23.312;2023-09-19T08:56:09;144110.38;;;23.92;68.31
788;BME280;16074;42.708;23.312;2023-09-19T08:58:44;144133.56;;;24.02;69.35
788;BME280;16074;42.708;23.312;2023-09-19T09:01:15;144218.84;;;24.36;65.43
788;BME280;16074;42.708;23.312;2023-09-19T09:03:46;144199.34;;;24.28;65.29
788;BME280;16074;42.708;23.312;2023-09-19T09:06:15;144223.72;;;24.38;63.26
788;BME280;16074;42.708;23.312;2023-09-19T09:08:46;144229.78;;;24.41;64.11
788;BME280;16074;42.708;23.312;2023-09-19T09:11:15;144249.34;;;24.49;63.86
788;BME280;16074;42.708;23.312;2023-09-19T09:13:46;144017.75;;;23.54;69.65
788;BME280;16074;42.708;23.312;2023-09-19T09:16:15;144078.72;;;23.79;68.64
788;BME280;16074;42.708;23.312;2023-09-19T09:18:46;144154.25;;;24.10;67.75
788;BME280;16074;42.708;23.312;2023-09-19T09:21:20;144209.09;;;24.32;65.50
788;BME280;16074;42.708;23.312;2023-09-19T09:23:49;144266.41;;;24.56;64.46
788;BME280;16074;42.708;23.312;2023-09-19T09:26:41;144289.56;;;24.65;64.54
788;BME280;16074;42.708;23.312;2023-09-19T09:29:11;144318.81;;;24.77;63.53
788;BME280;16074;42.708;23.312;2023-09-19T09:31:45;144390.78;;;25.07;64.00
788;BME280;16074;42.708;23.312;2023-09-19T09:34:16;144445.69;;;25.29;61.21
788;BME280;16074;42.708;23.312;2023-09-19T09:36:47;144476.22;;;25.42;59.54
788;BME280;16074;42.708;23.312;2023-09-19T09:39:30;144542.06;;;25.68;58.64
788;BME280;16074;42.708;23.312;2023-09-19T09:41:59;144631.22;;;26.05;56.36
788;BME280;16074;42.708;23.312;2023-09-19T09:44:35;144654.38;;;26.14;54.50
788;BME280;16074;42.708;23.312;2023-09-19T09:47:03;144601.91;;;25.93;55.52
788;BME280;16074;42.708;23.312;2023-09-19T09:49:49;144626.31;;;26.03;56.05
788;BME280;16074;42.708;23.312;2023-09-19T09:52:44;144605.59;;;25.94;55.45
788;BME280;16074;42.708;23.312;2023-09-19T09:55:13;144666.59;;;26.19;54.17
788;BME280;16074;42.708;23.312;2023-09-19T09:57:41;144592.16;;;25.89;55.52
788;BME280;16074;42.708;23.312;2023-09-19T10:00:13;144626.31;;;26.03;54.19
788;BME280;16074;42.708;23.312;2023-09-19T10:02:47;144609.22;;;25.96;54.94
788;BME280;16074;42.708;23.312;2023-09-19T10:05:17;144634.84;;;26.06;54.04
788;BME280;16074;42.708;23.312;2023-09-19T10:07:55;144612.91;;;25.97;54.94
788;BME280;16074;42.708;23.312;2023-09-19T10:10:32;144576.31;;;25.82;55.14
788;BME280;16074;42.708;23.312;2023-09-19T10:13:12;144522.56;;;25.60;56.14
788;BME280;16074;42.708;23.312;2023-09-19T10:15:44;144549.41;;;25.71;56.40
788;BME280;16074;42.708;23.312;2023-09-19T10:18:20;144582.38;;;25.85;55.57
788;BME280;16074;42.708;23.312;2023-09-19T10:20:49;144604.34;;;25.94;56.38
788;BME280;16074;42.708;23.312;2023-09-19T10:23:19;144630.00;;;26.04;55.53
788;BME280;16074;42.708;23.312;2023-09-19T10:25:50;144656.81;;;26.15;55.11
788;BME280;16074;42.708;23.312;2023-09-19T10:28:21;144676.34;;;26.23;55.39
788;BME280;16074;42.708;23.312;2023-09-19T10:30:52;144710.56;;;26.37;53.47
788;BME280;16074;42.708;23.312;2023-09-19T10:33:21;144731.34;;;26.46;53.21
788;BME280;16074;42.708;23.312;2023-09-19T10:35:53;144764.34;;;26.59;53.57
788;BME280;16074;42.708;23.312;2023-09-19T10:38:24;144766.78;;;26.60;53.14
788;BME280;16074;42.708;23.312;2023-09-19T10:40:55;144822.91;;;26.83;52.59
788;BME280;16074;42.708;23.312;2023-09-19T10:43:30;144821.72;;;26.82;52.28
788;BME280;16074;42.708;23.312;2023-09-19T10:46:07;144794.84;;;26.72;51.77
788;BME280;16074;42.708;23.312;2023-09-19T10:48:38;144796.03;;;26.72;52.17
788;BME280;16074;42.708;23.312;2023-09-19T10:51:14;144782.63;;;26.67;52.49
788;BME280;16074;42.708;23.312;2023-09-19T10:53:47;144792.41;;;26.71;52.05
788;BME280;16074;42.708;23.312;2023-09-19T10:56:27;144791.16;;;26.70;51.94
788;BME280;16074;42.708;23.312;2023-09-19T10:59:07;144791.16;;;26.70;52.45
788;BME280;16074;42.708;23.312;2023-09-19T11:01:44;144794.84;;;26.72;53.11
788;BME280;16074;42.708;23.312;2023-09-19T11:04:22;144815.59;;;26.80;52.90
788;BME280;16074;42.708;23.312;2023-09-19T11:07:05;144831.50;;;26.86;52.30
788;BME280;16074;42.708;23.312;2023-09-19T11:09:49;144864.47;;;27.00;52.18
788;BME280;16074;42.708;23.312;2023-09-19T11:12:49;144901.16;;;27.15;51.87
788;BME280;16074;42.708;23.312;2023-09-19T11:18:52;144879.16;;;27.06;51.34
788;BME280;16074;42.708;23.312;2023-09-19T11:21:54;144912.13;;;27.19;52.15
788;BME280;16074;42.708;23.312;2023-09-19T11:24:30;144892.59;;;27.11;50.92
788;BME280;16074;42.708;23.312;2023-09-19T11:27:16;144958.56;;;27.38;50.42
788;BME280;16074;42.708;23.312;2023-09-19T11:29:47;144970.78;;;27.43;50.25
788;BME280;16074;42.708;23.312;2023-09-19T11:32:16;144975.69;;;27.45;50.62
788;BME280;16074;42.708;23.312;2023-09-19T11:34:48;145025.78;;;27.66;49.90
788;BME280;16074;42.708;23.312;2023-09-19T11:40:46;145160.28;;;28.20;49.17
788;BME280;16074;42.708;23.312;2023-09-19T11:43:29;145248.34;;;28.56;48.68
788;BME280;16074;42.708;23.312;2023-09-19T11:46:07;145293.56;;;28.75;47.42
788;BME280;16074;42.708;23.312;2023-09-19T11:48:38;145319.34;;;28.85;46.20
788;BME280;16074;42.708;23.312;2023-09-19T11:51:14;145357.25;;;29.01;46.29
788;BME280;16074;42.708;23.312;2023-09-19T11:53:46;145370.69;;;29.06;46.35
788;BME280;16074;42.708;23.312;2023-09-19T11:56:19;145365.78;;;29.04;46.48
788;BME280;16074;42.708;23.312;2023-09-19T11:58:50;145411.03;;;29.23;46.26
788;BME280;16074;42.708;23.312;2023-09-19T12:01:23;145469.84;;;29.46;45.64
788;BME280;16074;42.708;23.312;2023-09-19T12:03:53;145524.91;;;29.69;44.80
788;BME280;16074;42.708;23.312;2023-09-19T12:06:26;145598.44;;;29.99;43.60
788;BME280;16074;42.708;23.312;2023-09-19T12:08:56;145567.75;;;29.86;43.79
788;BME280;16074;42.708;23.312;2023-09-19T12:11:29;145577.53;;;29.90;43.37
788;BME280;16074;42.708;23.312;2023-09-19T12:14:01;145592.22;;;29.96;42.69
788;BME280;16074;42.708;23.312;2023-09-19T12:16:31;145591.03;;;29.96;43.57
788;BME280;16074;42.708;23.312;2023-09-19T12:19:19;145730.66;;;30.52;43.09
788;BME280;16074;42.708;23.312;2023-09-19T12:21:58;145869.16;;;31.09;42.54
788;BME280;16074;42.708;23.312;2023-09-19T12:24:32;146002.78;;;31.63;41.02
788;BME280;16074;42.708;23.312;2023-09-19T12:27:03;146098.41;;;32.02;39.77
788;BME280;16074;42.708;23.312;2023-09-19T12:29:43;146197.78;;;32.42;38.96
788;BME280;16074;42.708;23.312;2023-09-19T12:32:12;146293.47;;;32.81;38.35
788;BME280;16074;42.708;23.312;2023-09-19T12:34:50;146333.97;;;32.98;37.77
788;BME280;16074;42.708;23.312;2023-09-19T12:37:22;146370.78;;;33.12;37.41
788;BME280;16074;42.708;23.312;2023-09-19T12:40:04;146459.16;;;33.48;37.10
788;BME280;16074;42.708;23.312;2023-09-19T12:42:44;146545.16;;;33.83;36.55
788;BME280;16074;42.708;23.312;2023-09-19T12:45:13;146621.31;;;34.14;36.54
788;BME280;16074;42.708;23.312;2023-09-19T12:51:03;146740.50;;;34.62;34.86
788;BME280;16074;42.708;23.312;2023-09-19T12:53:36;146772.47;;;34.75;35.19
788;BME280;16074;42.708;23.312;2023-09-19T12:56:09;146778.59;;;34.78;33.79
788;BME280;16074;42.708;23.312;2023-09-19T12:58:50;146643.44;;;34.23;34.52
788;BME280;16074;42.708;23.312;2023-09-19T13:01:18;146591.78;;;34.02;35.08
788;BME280;16074;42.708;23.312;2023-09-19T13:04:10;146543.91;;;33.83;35.38
788;BME280;16074;42.708;23.312;2023-09-19T13:06:39;146482.53;;;33.58;35.45
788;BME280;16074;42.708;23.312;2023-09-19T13:09:12;146413.78;;;33.30;36.01
788;BME280;16074;42.708;23.312;2023-09-19T13:11:42;146349.94;;;33.04;36.73
788;BME280;16074;42.708;23.312;2023-09-19T13:14:15;146394.13;;;33.22;36.63
788;BME280;16074;42.708;23.312;2023-09-19T13:16:57;146493.53;;;33.62;35.82
788;BME280;16074;42.708;23.312;2023-09-19T13:19:40;146588.13;;;34.01;34.67
788;BME280;16074;42.708;23.312;2023-09-19T13:22:39;146590.59;;;34.02;35.23
788;BME280;16074;42.708;23.312;2023-09-19T13:25:13;146606.53;;;34.08;35.15
788;BME280;16074;42.708;23.312;2023-09-19T13:27:43;146513.25;;;33.70;35.32
788;BME280;16074;42.708;23.312;2023-09-19T13:30:12;146552.53;;;33.86;35.53
788;BME280;16074;42.708;23.312;2023-09-19T13:32:41;146642.22;;;34.23;35.21